METAR

TAF

 




Curitiba / Bacacheri, PR - SBBI


25 de Novembro de 2014 às 22:25 (UTC)


Tempo:

Céu parcialmente nublado, com chuva e trovoada

Temperatura:

18ºC

Umidade Relativa:

94%

Localização:
Ajuste do Altímetro:

1013 hPa

Visibilidade Horizontal Predominante:

4000 m

Direção e Velocidade do Vento:

200° 11,11 Km/h


Observação Meteorológica:

SPECI SBBI 252225Z 20006KT 4000 -TSRA BKN009 BKN030 FEW040CB 18/17 Q1013=